Time;durP1;ratioP1;P1;durP2;ratioP2;P2;SDS_P1;SDS_P2;PMS_P1;PMS_P2;Temp;Humidity;BMP_temperature;BMP_pressure;BME280_temperature;BME280_humidity;BME280_pressure;Samples;Min_cycle;Max_cycle;Signal;HPM_P1;HPM_P2
2023/01/09 00:01:48;;;;;;;3.93;2.03;;;8.50;99.90;;;;;;2614844;54;20507;-70
2023/01/09 00:10:58;;;;;;;2.53;1.57;;;8.40;99.90;;;;;;2614986;54;20403;-71
2023/01/09 00:16:46;;;;;;;2.47;1.67;;;8.30;99.90;;;;;;2612786;39;20613;-70
2023/01/09 00:22:34;;;;;;;2.97;2.00;;;8.30;99.90;;;;;;2615109;54;20151;-69
2023/01/09 00:28:21;;;;;;;2.60;1.73;;;8.20;99.90;;;;;;2614866;54;20403;-71
2023/01/09 00:34:09;;;;;;;3.20;1.77;;;8.10;99.90;;;;;;2613388;54;20153;-70
2023/01/09 00:39:57;;;;;;;2.67;1.47;;;8.00;99.90;;;;;;2613773;54;20131;-69
2023/01/09 00:45:44;;;;;;;2.40;1.40;;;8.00;99.90;;;;;;2613386;54;20138;-71
2023/01/09 00:51:33;;;;;;;2.60;1.60;;;7.80;99.90;;;;;;2614458;54;20150;-70
2023/01/09 00:57:21;;;;;;;8.63;1.47;;;7.70;99.90;;;;;;2615004;54;20387;-72
2023/01/09 01:03:09;;;;;;;2.77;1.27;;;7.70;99.90;;;;;;2614985;54;20166;-68
2023/01/09 01:08:56;;;;;;;2.40;1.10;;;7.60;99.90;;;;;;2614266;54;20722;-69
2023/01/09 01:14:47;;;;;;;2.03;1.10;;;7.50;99.90;;;;;;2613777;54;20121;-69
2023/01/09 01:20:35;;;;;;;3.07;1.80;;;7.50;99.90;;;;;;2613421;39;20782;-69
2023/01/09 01:26:22;;;;;;;2.50;1.70;;;7.60;99.90;;;;;;2614939;54;20150;-69
2023/01/09 01:32:10;;;;;;;2.40;1.50;;;7.60;99.90;;;;;;2613374;54;20270;-70
2023/01/09 01:37:58;;;;;;;2.67;1.50;;;7.50;99.90;;;;;;2614793;54;20151;-69
2023/01/09 01:43:56;;;;;;;2.23;0.93;;;7.50;99.90;;;;;;2614476;54;20159;-69
2023/01/09 01:49:44;;;;;;;1.73;0.97;;;7.40;99.90;;;;;;2613002;54;20386;-70
2023/01/09 01:55:35;;;;;;;3.07;1.57;;;7.40;99.90;;;;;;2614667;54;20374;-69
2023/01/09 02:01:24;;;;;;;2.93;2.30;;;7.40;99.90;;;;;;2613295;54;20498;-72
2023/01/09 02:10:55;;;;;;;2.17;1.40;;;7.30;99.90;;;;;;2615247;54;20399;-72
2023/01/09 02:16:52;;;;;;;1.80;0.90;;;7.30;99.90;;;;;;2615049;54;20430;-75
2023/01/09 02:42:47;;;;;;;1.80;1.10;;;7.20;99.90;;;;;;2615633;54;20391;-72
2023/01/09 02:48:35;;;;;;;1.93;0.80;;;7.20;99.90;;;;;;2613333;54;20990;-73
2023/01/09 03:11:06;;;;;;;3.37;1.30;;;6.90;99.90;;;;;;2615183;54;20386;-70
2023/01/09 03:23:09;;;;;;;1.70;1.20;;;7.20;99.90;;;;;;2614813;54;20379;-72
2023/01/09 03:28:58;;;;;;;3.37;1.97;;;7.40;99.90;;;;;;2615494;54;20431;-71
2023/01/09 03:34:46;;;;;;;7.27;1.97;;;7.40;99.90;;;;;;2615169;54;20833;-72
2023/01/09 03:40:33;;;;;;;2.50;1.60;;;7.40;99.90;;;;;;2615426;54;20219;-72
2023/01/09 03:46:21;;;;;;;3.27;2.07;;;7.40;99.90;;;;;;2613544;54;20130;-71
2023/01/09 03:52:09;;;;;;;4.43;2.17;;;7.40;99.90;;;;;;2614881;54;20275;-70
2023/01/09 03:57:57;;;;;;;6.50;2.37;;;7.50;99.90;;;;;;2615238;54;20125;-70
2023/01/09 04:03:45;;;;;;;4.30;2.47;;;7.20;99.90;;;;;;2612951;54;20135;-71
2023/01/09 04:06:24;;;;;;;5.40;3.13;;;7.00;99.90;;;;;;2612964;39;20781;-71
2023/01/09 04:08:50;;;;;;;4.27;2.50;;;7.00;99.90;;;;;;2614209;54;20158;-71
2023/01/09 04:14:37;;;;;;;4.63;2.70;;;7.00;99.90;;;;;;2615396;54;20146;-71
2023/01/09 04:20:25;;;;;;;6.33;3.17;;;7.00;99.90;;;;;;2614608;54;20162;-71
2023/01/09 04:26:13;;;;;;;5.10;2.37;;;6.80;99.90;;;;;;2613059;54;20134;-72
2023/01/09 04:32:00;;;;;;;2.70;1.67;;;6.70;99.90;;;;;;2615576;54;20129;-72
2023/01/09 04:37:48;;;;;;;3.30;2.57;;;6.40;99.90;;;;;;2616384;54;20154;-72
2023/01/09 04:43:36;;;;;;;6.43;2.73;;;6.40;99.90;;;;;;2614100;54;20134;-73
2023/01/09 04:49:24;;;;;;;5.10;2.67;;;6.20;99.90;;;;;;2615880;54;20157;-69
2023/01/09 04:55:11;;;;;;;4.30;2.77;;;6.10;99.90;;;;;;2615555;54;20556;-70
2023/01/09 05:00:59;;;;;;;9.80;2.97;;;6.10;99.90;;;;;;2614543;39;20221;-72
2023/01/09 05:10:56;;;;;;;14.13;3.63;;;6.00;99.90;;;;;;2615742;54;20382;-71
2023/01/09 05:16:44;;;;;;;5.47;2.53;;;6.00;99.90;;;;;;2614799;54;20406;-71
2023/01/09 05:22:31;;;;;;;6.57;2.20;;;6.10;99.90;;;;;;2616180;54;20118;-70
2023/01/09 05:28:19;;;;;;;8.30;2.43;;;6.30;99.90;;;;;;2615903;39;20494;-71
2023/01/09 05:34:07;;;;;;;6.33;3.00;;;6.40;99.90;;;;;;2614041;54;20138;-71
2023/01/09 05:39:55;;;;;;;4.40;2.17;;;6.50;99.90;;;;;;2614711;54;20960;-72
2023/01/09 05:45:42;;;;;;;3.53;2.47;;;6.70;99.90;;;;;;2614893;46;20150;-71
2023/01/09 05:51:30;;;;;;;4.43;1.53;;;6.80;99.90;;;;;;2614120;54;20149;-71
2023/01/09 05:57:21;;;;;;;4.03;2.57;;;6.90;99.90;;;;;;2615975;46;20399;-72
2023/01/09 06:03:09;;;;;;;4.40;2.17;;;7.00;99.90;;;;;;2616034;54;20390;-71
2023/01/09 06:06:25;;;;;;;3.10;2.33;;;6.90;99.90;;;;;;2613661;54;20503;-72
2023/01/09 06:08:50;;;;;;;4.67;2.10;;;6.90;99.90;;;;;;2615377;47;20205;-71
2023/01/09 06:14:38;;;;;;;5.47;2.40;;;6.90;99.90;;;;;;2615782;54;20147;-72
2023/01/09 06:20:25;;;;;;;5.93;2.40;;;6.90;99.90;;;;;;2616060;54;20640;-72
2023/01/09 06:26:13;;;;;;;5.90;2.20;;;6.90;99.90;;;;;;2614695;54;20135;-72
2023/01/09 06:32:01;;;;;;;9.70;2.80;;;6.90;99.90;;;;;;2616115;54;20155;-74
2023/01/09 06:37:49;;;;;;;6.83;2.87;;;7.00;99.90;;;;;;2614858;54;20262;-70
2023/01/09 06:43:36;;;;;;;6.03;2.07;;;6.80;99.90;;;;;;2614922;54;20382;-72
2023/01/09 06:46:04;;;;;;;2.90;1.73;;;6.70;99.90;;;;;;2612139;54;20988;-73
2023/01/09 06:48:30;;;;;;;4.90;2.17;;;6.60;99.90;;;;;;2612961;54;20155;-70
2023/01/09 06:54:19;;;;;;;6.33;2.27;;;6.60;99.90;;;;;;2615293;46;20548;-71
2023/01/09 07:00:07;;;;;;;4.67;2.43;;;6.70;99.90;;;;;;2613864;54;20386;-72
2023/01/09 07:05:55;;;;;;;4.37;2.47;;;6.80;99.90;;;;;;2611155;54;20395;-72
2023/01/09 07:11:43;;;;;;;5.50;2.33;;;6.80;99.90;;;;;;2611271;54;20511;-72
2023/01/09 07:14:58;;;;;;;4.80;2.07;;;6.80;99.90;;;;;;2612830;31;20921;-72
2023/01/09 07:20:46;;;;;;;4.77;2.13;;;7.00;99.90;;;;;;2615598;54;20403;-73
2023/01/09 07:26:33;;;;;;;2.47;1.20;;;7.10;99.90;;;;;;2612848;54;20134;-73
2023/01/09 07:32:21;;;;;;;5.37;2.40;;;7.10;99.90;;;;;;2615866;54;20131;-72
2023/01/09 07:34:48;;;;;;;7.60;2.00;;;7.20;99.90;;;;;;2613438;54;20436;-72
2023/01/09 07:37:13;;;;;;;4.13;1.77;;;7.30;99.90;;;;;;2612755;47;20173;-71
2023/01/09 07:43:03;;;;;;;4.90;2.33;;;7.40;99.90;;;;;;2612998;54;20460;-72
2023/01/09 07:48:53;;;;;;;6.03;2.17;;;7.40;99.90;;;;;;2613976;54;20575;-71
2023/01/09 07:54:41;;;;;;;3.57;1.77;;;7.30;99.90;;;;;;2613839;54;21037;-72
2023/01/09 08:00:29;;;;;;;3.27;2.23;;;7.40;99.90;;;;;;2614728;54;20154;-71
2023/01/09 08:06:17;;;;;;;7.03;2.17;;;7.30;99.90;;;;;;2615385;54;20142;-72
2023/01/09 08:15:26;;;;;;;4.53;2.17;;;7.40;99.90;;;;;;2614252;54;20423;-72
2023/01/09 08:21:14;;;;;;;4.67;1.90;;;7.50;99.90;;;;;;2612857;54;20151;-71
2023/01/09 08:27:02;;;;;;;8.73;2.13;;;7.40;99.90;;;;;;2615313;54;20165;-70
2023/01/09 08:32:52;;;;;;;7.70;2.30;;;7.50;99.90;;;;;;2615880;39;20517;-71
2023/01/09 08:38:40;;;;;;;4.33;2.07;;;7.30;99.90;;;;;;2614906;54;20379;-70
2023/01/09 08:50:33;;;;;;;6.73;3.30;;;7.30;99.90;;;;;;2615129;54;20527;-71
2023/01/09 08:56:24;;;;;;;5.27;2.00;;;7.30;99.90;;;;;;2615115;54;20596;-71
2023/01/09 09:02:12;;;;;;;5.80;2.40;;;7.30;99.90;;;;;;2614988;54;20407;-71
2023/01/09 09:08:01;;;;;;;6.07;1.63;;;7.30;99.90;;;;;;2615164;54;20660;-70
2023/01/09 09:11:00;;;;;;;4.50;2.50;;;7.30;99.90;;;;;;2614666;54;20490;-70
2023/01/09 09:13:28;;;;;;;4.87;1.37;;;7.30;99.90;;;;;;2614579;47;20937;-71
2023/01/09 09:19:15;;;;;;;5.70;2.90;;;7.20;99.90;;;;;;2613132;54;20367;-71
2023/01/09 09:25:04;;;;;;;4.13;1.73;;;7.20;99.90;;;;;;2614873;54;20779;-72
2023/01/09 09:30:51;;;;;;;5.33;2.20;;;7.10;99.90;;;;;;2613322;54;20423;-71
2023/01/09 09:36:39;;;;;;;8.30;2.60;;;7.10;99.90;;;;;;2614918;54;20170;-71
2023/01/09 09:49:23;;;;;;;3.07;1.80;;;7.40;99.90;;;;;;2613942;54;20507;-70
2023/01/09 10:01:39;;;;;;;5.77;2.20;;;7.70;99.90;;;;;;2613948;54;20892;-73
2023/01/09 10:07:41;;;;;;;8.00;2.50;;;7.80;99.90;;;;;;2613525;54;20399;-71
2023/01/09 10:32:56;;;;;;;5.20;2.07;;;7.80;99.90;;;;;;2613065;54;20414;-72
2023/01/09 10:38:47;;;;;;;7.20;2.17;;;8.20;99.90;;;;;;2612949;54;20162;-72
2023/01/09 10:57:39;;;;;;;8.00;2.57;;;8.60;99.90;;;;;;2613764;54;20398;-73
2023/01/09 11:03:27;;;;;;;4.83;2.57;;;8.60;99.90;;;;;;2611263;54;20406;-70
2023/01/09 11:09:15;;;;;;;7.03;2.10;;;8.70;99.90;;;;;;2611837;54;20431;-71
2023/01/09 11:11:43;;;;;;;4.43;1.90;;;8.80;99.90;;;;;;2611035;54;20459;-72
2023/01/09 11:20:29;;;;;;;3.17;2.33;;;9.10;99.90;;;;;;2613734;54;21054;-74
2023/01/09 11:26:27;;;;;;;4.60;2.13;;;9.00;99.90;;;;;;2614180;39;20477;-70
2023/01/09 11:39:01;;;;;;;3.53;1.80;;;8.80;99.90;;;;;;2613601;54;20512;-72
2023/01/09 11:44:56;;;;;;;4.67;2.10;;;8.80;99.90;;;;;;2614304;39;20809;-71
2023/01/09 11:57:17;;;;;;;4.80;1.90;;;8.60;99.90;;;;;;2614042;54;21063;-71
2023/01/09 12:03:22;;;;;;;5.70;2.67;;;8.30;99.90;;;;;;2613720;54;20379;-72
2023/01/09 12:16:29;;;;;;;10.27;3.37;;;7.90;99.90;;;;;;2613852;54;20474;-71
2023/01/09 12:18:55;;;;;;;5.60;2.50;;;7.90;99.90;;;;;;2615193;54;20973;-73
2023/01/09 13:04:35;;;;;;;4.23;3.13;;;7.70;99.90;;;;;;2613215;54;20387;-72
2023/01/09 13:10:32;;;;;;;7.33;4.20;;;11.50;99.90;;;;;;2611773;54;20977;-72
2023/01/09 13:16:32;;;;;;;4.10;2.40;;;11.30;99.90;;;;;;2612500;47;20422;-71
2023/01/09 13:22:24;;;;;;;4.83;3.47;;;8.40;99.90;;;;;;2613504;54;20371;-71
2023/01/09 13:28:17;;;;;;;3.40;2.70;;;8.10;99.90;;;;;;2613387;54;21036;-71
2023/01/09 13:37:30;;;;;;;3.30;2.30;;;7.90;99.90;;;;;;2613378;54;20391;-69
2023/01/09 13:43:17;;;;;;;4.50;2.60;;;7.90;99.90;;;;;;2612861;46;20413;-72
2023/01/09 13:49:04;;;;;;;5.37;3.13;;;7.90;99.90;;;;;;2611616;54;20157;-71
2023/01/09 13:54:54;;;;;;;8.10;3.60;;;8.00;99.90;;;;;;2614972;54;20251;-71
2023/01/09 14:00:41;;;;;;;5.13;3.37;;;8.00;99.90;;;;;;2615204;54;20455;-71
2023/01/09 14:06:29;;;;;;;7.77;3.03;;;7.90;99.90;;;;;;2613238;54;20186;-72
2023/01/09 14:12:19;;;;;;;6.50;3.53;;;8.00;99.90;;;;;;2615182;54;20135;-70
2023/01/09 14:18:14;;;;;;;5.90;2.90;;;8.00;99.90;;;;;;2615579;54;20459;-72
2023/01/09 14:20:44;;;;;;;5.67;3.07;;;8.00;99.90;;;;;;2613749;54;20410;-71
2023/01/09 14:34:10;;;;;;;7.17;3.33;;;8.00;99.90;;;;;;2614814;39;20880;-71
2023/01/09 14:40:00;;;;;;;5.97;2.77;;;8.00;99.90;;;;;;2613618;54;20451;-70
2023/01/09 14:45:48;;;;;;;5.77;3.47;;;8.00;99.90;;;;;;2613981;54;20573;-72
2023/01/09 14:51:41;;;;;;;7.13;4.40;;;8.00;99.90;;;;;;2613476;54;20381;-72
2023/01/09 14:57:33;;;;;;;4.47;3.07;;;8.00;99.90;;;;;;2612600;39;21162;-72
2023/01/09 15:03:22;;;;;;;6.27;3.20;;;7.90;99.90;;;;;;2613060;31;20860;-72
2023/01/09 15:15:50;;;;;;;5.33;3.43;;;7.80;99.90;;;;;;2614308;46;20503;-71
2023/01/09 15:21:38;;;;;;;8.57;3.83;;;7.80;99.90;;;;;;2615050;54;20940;-72
2023/01/09 15:24:52;;;;;;;3.77;3.00;;;7.80;99.90;;;;;;2614569;54;20416;-73
2023/01/09 15:27:20;;;;;;;7.10;3.47;;;7.80;99.90;;;;;;2614597;54;20155;-71
2023/01/09 15:29:47;;;;;;;8.20;2.97;;;7.90;99.90;;;;;;2615082;54;20395;-71
2023/01/09 15:38:31;;;;;;;5.13;3.20;;;7.70;99.90;;;;;;2614271;47;20555;-71
2023/01/09 15:44:24;;;;;;;7.33;3.10;;;7.70;99.90;;;;;;2615067;39;20747;-73
2023/01/09 15:50:17;;;;;;;4.30;3.60;;;7.70;99.90;;;;;;2616110;39;20705;-73
2023/01/09 15:56:10;;;;;;;7.90;3.67;;;7.70;99.90;;;;;;2615881;54;20425;-72
2023/01/09 16:18:54;;;;;;;5.83;3.87;;;7.50;99.90;;;;;;2615732;54;20413;-72
2023/01/09 16:24:42;;;;;;;12.37;4.70;;;7.50;99.90;;;;;;2614020;54;20387;-70
2023/01/09 16:30:32;;;;;;;8.60;4.30;;;7.50;99.90;;;;;;2614788;54;20151;-71
2023/01/09 16:36:20;;;;;;;8.17;5.00;;;7.30;99.90;;;;;;2615330;54;20412;-73
2023/01/09 16:48:20;;;;;;;7.83;5.60;;;7.20;99.90;;;;;;2614075;54;20374;-73
2023/01/09 16:54:07;;;;;;;15.83;5.40;;;7.10;99.90;;;;;;2615633;54;20972;-72
2023/01/09 16:59:59;;;;;;;11.60;6.50;;;7.20;99.90;;;;;;2616013;54;20227;-70
2023/01/09 17:05:59;;;;;;;9.27;6.00;;;7.20;99.90;;;;;;2616071;54;20391;-71
2023/01/09 17:11:47;;;;;;;14.83;6.40;;;7.10;99.90;;;;;;2616552;54;20427;-71
2023/01/09 17:17:34;;;;;;;7.43;5.10;;;7.10;99.90;;;;;;2615065;54;20143;-71
2023/01/09 17:23:25;;;;;;;6.17;4.33;;;7.10;99.90;;;;;;2616361;54;20162;-72
2023/01/09 17:29:13;;;;;;;9.87;6.13;;;7.10;99.90;;;;;;2615499;46;20417;-72
2023/01/09 17:35:00;;;;;;;7.93;6.07;;;7.10;99.90;;;;;;2614440;54;20126;-72
2023/01/09 17:40:49;;;;;;;17.03;6.47;;;7.00;99.90;;;;;;2615264;54;20722;-72
2023/01/09 17:46:40;;;;;;;11.07;6.47;;;7.00;99.90;;;;;;2614941;54;20964;-72
2023/01/09 17:52:28;;;;;;;5.83;3.63;;;6.90;99.90;;;;;;2614830;54;20391;-72
2023/01/09 17:58:29;;;;;;;10.00;3.90;;;6.90;99.90;;;;;;2615668;54;20234;-72
2023/01/09 18:04:16;;;;;;;7.13;5.37;;;6.80;99.90;;;;;;2616074;54;20391;-71
2023/01/09 18:10:05;;;;;;;7.80;4.60;;;6.70;99.90;;;;;;2616044;54;20183;-72
2023/01/09 18:15:52;;;;;;;6.13;4.23;;;6.50;99.90;;;;;;2616148;54;20379;-73
2023/01/09 18:19:03;;;;;;;7.33;4.87;;;6.60;99.90;;;;;;2613873;54;20419;-72
2023/01/09 18:21:29;;;;;;;6.10;4.40;;;6.60;99.90;;;;;;2615007;46;20290;-71
2023/01/09 18:27:17;;;;;;;6.40;3.87;;;6.60;99.90;;;;;;2615714;54;20383;-71
2023/01/09 18:33:05;;;;;;;9.97;5.20;;;6.80;99.90;;;;;;2614473;54;20162;-72
2023/01/09 18:38:53;;;;;;;7.57;5.40;;;6.60;99.90;;;;;;2615872;54;20242;-72
2023/01/09 18:44:41;;;;;;;16.13;6.60;;;6.60;99.90;;;;;;2615894;54;20133;-72
2023/01/09 18:50:28;;;;;;;8.70;5.80;;;6.60;99.90;;;;;;2614999;54;20730;-73
2023/01/09 18:56:18;;;;;;;10.70;6.17;;;6.60;99.90;;;;;;2616112;54;20222;-71
2023/01/09 19:02:07;;;;;;;17.90;7.20;;;6.60;99.90;;;;;;2615298;54;20498;-73
2023/01/09 19:07:55;;;;;;;12.87;8.60;;;6.50;99.90;;;;;;2615340;54;20358;-72
2023/01/09 19:13:43;;;;;;;14.17;9.90;;;6.50;99.90;;;;;;2615502;54;20366;-73
2023/01/09 19:23:36;;;;;;;14.40;9.17;;;6.70;99.90;;;;;;2613885;54;20391;-72
2023/01/09 19:29:24;;;;;;;17.70;12.30;;;6.70;99.90;;;;;;2615041;54;20379;-72
2023/01/09 19:35:12;;;;;;;17.13;10.97;;;6.60;99.90;;;;;;2615260;39;20779;-71
2023/01/09 19:41:08;;;;;;;17.67;10.00;;;6.60;99.90;;;;;;2614133;54;20149;-72
2023/01/09 19:46:55;;;;;;;11.03;6.70;;;6.60;99.90;;;;;;2613849;54;20519;-70
2023/01/09 19:52:44;;;;;;;12.97;7.90;;;6.70;99.90;;;;;;2613118;54;20138;-72
2023/01/09 19:58:32;;;;;;;12.47;8.60;;;6.70;99.90;;;;;;2613163;46;20381;-72
2023/01/09 20:04:20;;;;;;;11.57;8.30;;;6.80;99.90;;;;;;2613302;54;20150;-72
2023/01/09 20:10:08;;;;;;;15.70;8.50;;;6.80;99.90;;;;;;2613742;54;20516;-72
2023/01/09 20:12:34;;;;;;;12.83;7.40;;;6.80;99.90;;;;;;2612518;54;20431;-71
2023/01/09 20:14:59;;;;;;;12.83;8.87;;;6.80;99.90;;;;;;2615057;54;20419;-72
2023/01/09 20:24:16;;;;;;;14.00;8.00;;;6.80;99.90;;;;;;2615273;54;20402;-73
2023/01/09 20:30:04;;;;;;;13.30;7.80;;;6.80;99.90;;;;;;2614588;54;20366;-71
2023/01/09 20:35:52;;;;;;;17.00;9.57;;;6.80;99.90;;;;;;2616540;31;20793;-73
2023/01/09 20:41:40;;;;;;;13.93;8.97;;;6.80;99.90;;;;;;2615433;54;20125;-72
2023/01/09 20:47:28;;;;;;;17.90;10.73;;;6.80;99.90;;;;;;2615349;54;20157;-71
2023/01/09 20:53:15;;;;;;;29.03;8.20;;;6.80;99.90;;;;;;2615584;54;20157;-72
2023/01/09 20:59:05;;;;;;;22.73;10.20;;;6.80;99.90;;;;;;2615701;54;20150;-72
2023/01/09 21:04:52;;;;;;;19.33;8.47;;;6.80;99.90;;;;;;2613995;54;20960;-72
2023/01/09 21:10:39;;;;;;;18.47;10.70;;;6.80;99.90;;;;;;2613831;54;20226;-71
2023/01/09 21:19:48;;;;;;;21.10;9.37;;;6.90;99.90;;;;;;2613594;54;20435;-71
2023/01/09 21:25:39;;;;;;;15.50;8.60;;;6.90;99.90;;;;;;2613566;54;20419;-72
2023/01/09 21:28:47;;;;;;;14.50;8.77;;;7.00;99.90;;;;;;2613712;54;21809;-72
2023/01/09 21:31:14;;;;;;;12.40;8.80;;;6.90;99.90;;;;;;2613629;54;20402;-71
2023/01/09 21:37:02;;;;;;;14.07;9.27;;;6.90;99.90;;;;;;2614881;54;20429;-74
2023/01/09 21:48:56;;;;;;;11.20;7.93;;;7.00;99.90;;;;;;2615556;54;20391;-71
2023/01/09 21:54:44;;;;;;;11.03;6.10;;;7.00;99.90;;;;;;2614349;54;20174;-73
2023/01/09 22:00:32;;;;;;;16.37;8.30;;;7.00;99.90;;;;;;2615169;54;20150;-72
2023/01/09 22:06:19;;;;;;;14.43;7.83;;;6.90;99.90;;;;;;2615026;54;20119;-71
2023/01/09 22:12:09;;;;;;;11.43;7.33;;;6.90;99.90;;;;;;2614658;54;20231;-72
2023/01/09 22:17:57;;;;;;;9.97;6.77;;;6.80;99.90;;;;;;2614861;54;20387;-73
2023/01/09 22:27:13;;;;;;;16.50;7.47;;;6.70;99.90;;;;;;2614160;54;20923;-71
2023/01/09 22:33:01;;;;;;;13.53;8.27;;;6.70;99.90;;;;;;2613749;47;20627;-71
2023/01/09 22:38:53;;;;;;;13.30;6.83;;;6.60;99.90;;;;;;2614648;54;20430;-72
2023/01/09 22:44:40;;;;;;;10.87;6.57;;;6.40;99.90;;;;;;2615122;54;20415;-70
2023/01/09 22:50:28;;;;;;;9.87;6.57;;;6.30;99.90;;;;;;2614502;54;20663;-71
2023/01/09 22:56:20;;;;;;;11.10;6.10;;;6.30;99.90;;;;;;2615669;54;20815;-71
2023/01/09 23:02:14;;;;;;;15.03;5.90;;;6.30;99.90;;;;;;2615925;54;20399;-71
2023/01/09 23:08:01;;;;;;;12.70;5.40;;;6.30;99.90;;;;;;2614857;54;20536;-73
2023/01/09 23:13:49;;;;;;;11.67;5.67;;;6.30;99.90;;;;;;2615588;54;20186;-72
2023/01/09 23:19:39;;;;;;;14.50;7.17;;;6.20;99.90;;;;;;2615295;54;20157;-72
2023/01/09 23:22:40;;;;;;;9.10;6.30;;;6.30;99.90;;;;;;2614865;47;20419;-72
2023/01/09 23:25:06;;;;;;;10.80;7.37;;;6.30;99.90;;;;;;2615311;54;20973;-72
2023/01/09 23:30:54;;;;;;;13.73;6.37;;;6.40;99.90;;;;;;2615077;54;20423;-72
2023/01/09 23:36:42;;;;;;;12.03;6.27;;;6.40;99.90;;;;;;2615430;54;20210;-72
2023/01/09 23:48:35;;;;;;;13.47;8.37;;;6.50;99.90;;;;;;2616004;54;20828;-72
2023/01/09 23:54:24;;;;;;;16.70;8.13;;;6.60;99.90;;;;;;2616364;54;20690;-72
